sensor_id;sensor_type;location;lat;lon;timestamp;P1;durP1;ratioP1;P2;durP2;ratioP2
71965;SDS011;59836;52.132;5.442;2022-10-16T00:04:52;3.97;;;1.25;;
71965;SDS011;59836;52.132;5.442;2022-10-16T00:07:38;3.45;;;1.35;;
71965;SDS011;59836;52.132;5.442;2022-10-16T00:10:04;2.50;;;1.20;;
71965;SDS011;59836;52.132;5.442;2022-10-16T00:15:25;4.25;;;1.20;;
71965;SDS011;59836;52.132;5.442;2022-10-16T00:18:02;3.05;;;1.58;;
71965;SDS011;59836;52.132;5.442;2022-10-16T00:20:30;2.92;;;1.42;;
71965;SDS011;59836;52.132;5.442;2022-10-16T00:22:59;4.63;;;1.33;;
71965;SDS011;59836;52.132;5.442;2022-10-16T00:27:59;3.97;;;1.55;;
71965;SDS011;59836;52.132;5.442;2022-10-16T00:30:43;3.17;;;1.55;;
71965;SDS011;59836;52.132;5.442;2022-10-16T00:33:26;7.60;;;2.00;;
71965;SDS011;59836;52.132;5.442;2022-10-16T00:35:53;3.10;;;1.63;;
71965;SDS011;59836;52.132;5.442;2022-10-16T00:38:38;4.20;;;1.50;;
71965;SDS011;59836;52.132;5.442;2022-10-16T00:41:05;5.00;;;1.58;;
71965;SDS011;59836;52.132;5.442;2022-10-16T00:46:40;4.95;;;1.58;;
71965;SDS011;59836;52.132;5.442;2022-10-16T00:49:18;3.57;;;1.70;;
71965;SDS011;59836;52.132;5.442;2022-10-16T00:51:47;4.88;;;1.60;;
71965;SDS011;59836;52.132;5.442;2022-10-16T00:57:07;7.22;;;2.00;;
71965;SDS011;59836;52.132;5.442;2022-10-16T00:59:40;4.05;;;1.98;;
71965;SDS011;59836;52.132;5.442;2022-10-16T01:02:12;6.87;;;1.80;;
71965;SDS011;59836;52.132;5.442;2022-10-16T01:04:58;6.05;;;2.30;;
71965;SDS011;59836;52.132;5.442;2022-10-16T01:10:27;3.80;;;2.65;;
71965;SDS011;59836;52.132;5.442;2022-10-16T01:13:03;5.95;;;2.25;;
71965;SDS011;59836;52.132;5.442;2022-10-16T01:18:40;4.90;;;2.40;;
71965;SDS011;59836;52.132;5.442;2022-10-16T01:27:35;7.30;;;2.95;;
71965;SDS011;59836;52.132;5.442;2022-10-16T01:33:28;6.03;;;2.70;;
71965;SDS011;59836;52.132;5.442;2022-10-16T01:36:15;3.03;;;1.98;;
71965;SDS011;59836;52.132;5.442;2022-10-16T01:38:47;4.43;;;2.00;;
71965;SDS011;59836;52.132;5.442;2022-10-16T01:41:36;4.65;;;2.22;;
71965;SDS011;59836;52.132;5.442;2022-10-16T01:44:11;5.87;;;2.43;;
71965;SDS011;59836;52.132;5.442;2022-10-16T01:46:52;5.60;;;2.15;;
71965;SDS011;59836;52.132;5.442;2022-10-16T01:49:20;3.15;;;2.17;;
71965;SDS011;59836;52.132;5.442;2022-10-16T01:51:55;4.30;;;2.60;;
71965;SDS011;59836;52.132;5.442;2022-10-16T01:57:32;3.90;;;2.30;;
71965;SDS011;59836;52.132;5.442;2022-10-16T02:05:18;3.40;;;2.15;;
71965;SDS011;59836;52.132;5.442;2022-10-16T02:10:37;2.90;;;2.00;;
71965;SDS011;59836;52.132;5.442;2022-10-16T02:16:18;3.42;;;1.65;;
71965;SDS011;59836;52.132;5.442;2022-10-16T02:18:44;4.95;;;2.30;;
71965;SDS011;59836;52.132;5.442;2022-10-16T02:21:25;3.17;;;1.92;;
71965;SDS011;59836;52.132;5.442;2022-10-16T02:24:00;3.30;;;1.87;;
71965;SDS011;59836;52.132;5.442;2022-10-16T02:26:42;5.93;;;2.10;;
71965;SDS011;59836;52.132;5.442;2022-10-16T02:29:15;3.75;;;1.80;;
71965;SDS011;59836;52.132;5.442;2022-10-16T02:31:45;4.65;;;2.00;;
71965;SDS011;59836;52.132;5.442;2022-10-16T02:34:17;5.13;;;2.00;;
71965;SDS011;59836;52.132;5.442;2022-10-16T02:36:55;3.53;;;2.00;;
71965;SDS011;59836;52.132;5.442;2022-10-16T02:39:28;7.97;;;2.58;;
71965;SDS011;59836;52.132;5.442;2022-10-16T02:44:43;2.75;;;1.85;;
71965;SDS011;59836;52.132;5.442;2022-10-16T02:47:11;2.63;;;1.90;;
71965;SDS011;59836;52.132;5.442;2022-10-16T02:49:39;3.40;;;2.60;;
71965;SDS011;59836;52.132;5.442;2022-10-16T02:52:06;3.55;;;2.20;;
71965;SDS011;59836;52.132;5.442;2022-10-16T02:57:19;2.78;;;2.10;;
71965;SDS011;59836;52.132;5.442;2022-10-16T02:59:45;3.42;;;2.10;;
71965;SDS011;59836;52.132;5.442;2022-10-16T03:02:12;3.43;;;1.93;;
71965;SDS011;59836;52.132;5.442;2022-10-16T03:04:38;4.60;;;2.50;;
71965;SDS011;59836;52.132;5.442;2022-10-16T03:07:09;4.50;;;2.17;;
71965;SDS011;59836;52.132;5.442;2022-10-16T03:09:35;4.57;;;2.72;;
71965;SDS011;59836;52.132;5.442;2022-10-16T03:12:18;6.32;;;2.08;;
71965;SDS011;59836;52.132;5.442;2022-10-16T03:14:53;3.47;;;2.03;;
71965;SDS011;59836;52.132;5.442;2022-10-16T03:17:36;5.63;;;2.42;;
71965;SDS011;59836;52.132;5.442;2022-10-16T03:20:03;2.50;;;1.73;;
71965;SDS011;59836;52.132;5.442;2022-10-16T03:22:29;3.45;;;2.25;;
71965;SDS011;59836;52.132;5.442;2022-10-16T03:25:04;3.20;;;2.25;;
71965;SDS011;59836;52.132;5.442;2022-10-16T03:27:31;4.07;;;2.13;;
71965;SDS011;59836;52.132;5.442;2022-10-16T03:32:50;3.85;;;1.80;;
71965;SDS011;59836;52.132;5.442;2022-10-16T03:35:20;2.13;;;1.85;;
71965;SDS011;59836;52.132;5.442;2022-10-16T03:37:47;3.88;;;2.20;;
71965;SDS011;59836;52.132;5.442;2022-10-16T03:40:14;3.03;;;2.07;;
71965;SDS011;59836;52.132;5.442;2022-10-16T03:42:42;4.63;;;2.15;;
71965;SDS011;59836;52.132;5.442;2022-10-16T03:45:09;4.90;;;2.40;;
71965;SDS011;59836;52.132;5.442;2022-10-16T03:47:42;3.70;;;1.95;;
71965;SDS011;59836;52.132;5.442;2022-10-16T03:50:09;5.78;;;2.28;;
71965;SDS011;59836;52.132;5.442;2022-10-16T03:52:37;3.00;;;2.00;;
71965;SDS011;59836;52.132;5.442;2022-10-16T03:58:44;5.63;;;2.28;;
71965;SDS011;59836;52.132;5.442;2022-10-16T04:01:28;2.78;;;2.08;;
71965;SDS011;59836;52.132;5.442;2022-10-16T04:07:01;2.23;;;1.50;;
71965;SDS011;59836;52.132;5.442;2022-10-16T04:09:29;2.30;;;1.42;;
71965;SDS011;59836;52.132;5.442;2022-10-16T04:11:58;3.50;;;1.63;;
71965;SDS011;59836;52.132;5.442;2022-10-16T04:14:25;3.75;;;1.85;;
71965;SDS011;59836;52.132;5.442;2022-10-16T04:16:52;3.70;;;1.60;;
71965;SDS011;59836;52.132;5.442;2022-10-16T04:19:24;2.83;;;1.73;;
71965;SDS011;59836;52.132;5.442;2022-10-16T04:21:50;2.10;;;1.80;;
71965;SDS011;59836;52.132;5.442;2022-10-16T04:24:17;2.67;;;1.50;;
71965;SDS011;59836;52.132;5.442;2022-10-16T04:26:44;3.83;;;1.50;;
71965;SDS011;59836;52.132;5.442;2022-10-16T04:29:11;2.28;;;1.42;;
71965;SDS011;59836;52.132;5.442;2022-10-16T04:31:39;3.17;;;1.83;;
71965;SDS011;59836;52.132;5.442;2022-10-16T04:34:05;4.47;;;1.60;;
71965;SDS011;59836;52.132;5.442;2022-10-16T04:36:38;2.20;;;1.40;;
71965;SDS011;59836;52.132;5.442;2022-10-16T04:39:05;4.30;;;1.48;;
71965;SDS011;59836;52.132;5.442;2022-10-16T04:41:31;3.83;;;1.60;;
71965;SDS011;59836;52.132;5.442;2022-10-16T04:43:57;3.30;;;1.50;;
71965;SDS011;59836;52.132;5.442;2022-10-16T04:46:24;3.97;;;1.40;;
71965;SDS011;59836;52.132;5.442;2022-10-16T04:48:58;2.83;;;1.52;;
71965;SDS011;59836;52.132;5.442;2022-10-16T04:51:24;2.33;;;1.42;;
71965;SDS011;59836;52.132;5.442;2022-10-16T04:53:51;2.35;;;1.50;;
71965;SDS011;59836;52.132;5.442;2022-10-16T04:56:18;2.37;;;1.10;;
71965;SDS011;59836;52.132;5.442;2022-10-16T04:58:45;2.53;;;1.23;;
71965;SDS011;59836;52.132;5.442;2022-10-16T05:01:14;2.47;;;1.23;;
71965;SDS011;59836;52.132;5.442;2022-10-16T05:06:26;3.55;;;1.25;;
71965;SDS011;59836;52.132;5.442;2022-10-16T05:08:53;2.40;;;1.47;;
71965;SDS011;59836;52.132;5.442;2022-10-16T05:11:27;3.35;;;1.20;;
71965;SDS011;59836;52.132;5.442;2022-10-16T05:13:54;2.38;;;1.38;;
71965;SDS011;59836;52.132;5.442;2022-10-16T05:16:23;2.78;;;1.63;;
71965;SDS011;59836;52.132;5.442;2022-10-16T05:18:51;2.38;;;1.05;;
71965;SDS011;59836;52.132;5.442;2022-10-16T05:21:30;2.87;;;1.57;;
71965;SDS011;59836;52.132;5.442;2022-10-16T05:23:57;3.03;;;1.38;;
71965;SDS011;59836;52.132;5.442;2022-10-16T05:26:31;2.05;;;1.70;;
71965;SDS011;59836;52.132;5.442;2022-10-16T05:29:01;4.72;;;1.38;;
71965;SDS011;59836;52.132;5.442;2022-10-16T05:34:05;3.43;;;1.30;;
71965;SDS011;59836;52.132;5.442;2022-10-16T05:36:31;3.10;;;1.50;;
71965;SDS011;59836;52.132;5.442;2022-10-16T05:39:13;5.90;;;1.50;;
71965;SDS011;59836;52.132;5.442;2022-10-16T05:44:43;3.40;;;1.60;;
71965;SDS011;59836;52.132;5.442;2022-10-16T05:50:08;2.13;;;1.30;;
71965;SDS011;59836;52.132;5.442;2022-10-16T05:52:35;2.58;;;1.38;;
71965;SDS011;59836;52.132;5.442;2022-10-16T05:55:10;4.78;;;1.90;;
71965;SDS011;59836;52.132;5.442;2022-10-16T05:57:38;3.05;;;1.35;;
71965;SDS011;59836;52.132;5.442;2022-10-16T06:00:06;3.03;;;1.23;;
71965;SDS011;59836;52.132;5.442;2022-10-16T06:02:42;2.17;;;1.52;;
71965;SDS011;59836;52.132;5.442;2022-10-16T06:05:08;2.65;;;1.60;;
71965;SDS011;59836;52.132;5.442;2022-10-16T06:07:51;3.20;;;1.33;;
71965;SDS011;59836;52.132;5.442;2022-10-16T06:10:33;3.10;;;1.20;;
71965;SDS011;59836;52.132;5.442;2022-10-16T06:13:14;3.10;;;1.60;;
71965;SDS011;59836;52.132;5.442;2022-10-16T06:15:41;2.22;;;1.60;;
71965;SDS011;59836;52.132;5.442;2022-10-16T06:18:09;2.30;;;1.40;;
71965;SDS011;59836;52.132;5.442;2022-10-16T06:20:44;3.42;;;1.77;;
71965;SDS011;59836;52.132;5.442;2022-10-16T06:23:10;2.17;;;1.33;;
71965;SDS011;59836;52.132;5.442;2022-10-16T06:25:37;3.10;;;1.60;;
71965;SDS011;59836;52.132;5.442;2022-10-16T06:28:13;2.83;;;1.17;;
71965;SDS011;59836;52.132;5.442;2022-10-16T06:30:46;2.17;;;1.33;;
71965;SDS011;59836;52.132;5.442;2022-10-16T06:33:19;3.25;;;1.40;;
71965;SDS011;59836;52.132;5.442;2022-10-16T06:35:46;5.25;;;1.50;;
71965;SDS011;59836;52.132;5.442;2022-10-16T06:38:14;4.87;;;2.10;;
71965;SDS011;59836;52.132;5.442;2022-10-16T06:40:41;3.08;;;1.70;;
71965;SDS011;59836;52.132;5.442;2022-10-16T06:43:13;3.30;;;1.95;;
71965;SDS011;59836;52.132;5.442;2022-10-16T06:45:40;2.45;;;1.58;;
71965;SDS011;59836;52.132;5.442;2022-10-16T06:48:13;3.90;;;1.50;;
71965;SDS011;59836;52.132;5.442;2022-10-16T06:50:40;2.63;;;1.20;;
71965;SDS011;59836;52.132;5.442;2022-10-16T06:53:06;4.28;;;1.48;;
71965;SDS011;59836;52.132;5.442;2022-10-16T06:55:33;3.83;;;1.60;;
71965;SDS011;59836;52.132;5.442;2022-10-16T07:03:44;2.97;;;1.70;;
71965;SDS011;59836;52.132;5.442;2022-10-16T07:06:12;3.08;;;1.50;;
71965;SDS011;59836;52.132;5.442;2022-10-16T07:08:44;5.68;;;1.60;;
71965;SDS011;59836;52.132;5.442;2022-10-16T07:11:24;4.05;;;1.30;;
71965;SDS011;59836;52.132;5.442;2022-10-16T07:16:48;2.80;;;1.40;;
71965;SDS011;59836;52.132;5.442;2022-10-16T07:19:15;3.00;;;1.40;;
71965;SDS011;59836;52.132;5.442;2022-10-16T07:21:44;3.20;;;1.63;;
71965;SDS011;59836;52.132;5.442;2022-10-16T07:24:15;2.88;;;1.58;;
71965;SDS011;59836;52.132;5.442;2022-10-16T07:26:45;4.20;;;1.40;;
71965;SDS011;59836;52.132;5.442;2022-10-16T07:29:21;2.03;;;1.23;;
71965;SDS011;59836;52.132;5.442;2022-10-16T07:31:48;3.28;;;1.27;;
71965;SDS011;59836;52.132;5.442;2022-10-16T07:37:24;2.35;;;1.15;;
71965;SDS011;59836;52.132;5.442;2022-10-16T07:39:51;3.45;;;1.30;;
71965;SDS011;59836;52.132;5.442;2022-10-16T07:42:17;4.83;;;1.10;;
71965;SDS011;59836;52.132;5.442;2022-10-16T07:44:44;1.98;;;1.13;;
71965;SDS011;59836;52.132;5.442;2022-10-16T07:47:10;3.30;;;1.00;;
71965;SDS011;59836;52.132;5.442;2022-10-16T07:49:42;2.42;;;1.30;;
71965;SDS011;59836;52.132;5.442;2022-10-16T07:52:08;5.03;;;1.90;;
71965;SDS011;59836;52.132;5.442;2022-10-16T07:54:35;4.10;;;1.17;;
71965;SDS011;59836;52.132;5.442;2022-10-16T07:57:01;3.78;;;1.75;;
71965;SDS011;59836;52.132;5.442;2022-10-16T07:59:56;5.00;;;1.52;;
71965;SDS011;59836;52.132;5.442;2022-10-16T08:02:26;4.50;;;1.73;;
71965;SDS011;59836;52.132;5.442;2022-10-16T08:04:58;3.75;;;1.65;;
71965;SDS011;59836;52.132;5.442;2022-10-16T08:07:25;2.87;;;1.80;;
71965;SDS011;59836;52.132;5.442;2022-10-16T08:09:52;2.28;;;1.70;;
71965;SDS011;59836;52.132;5.442;2022-10-16T08:12:18;2.55;;;1.35;;
71965;SDS011;59836;52.132;5.442;2022-10-16T08:14:45;4.93;;;1.83;;
71965;SDS011;59836;52.132;5.442;2022-10-16T08:17:13;3.97;;;1.77;;
71965;SDS011;59836;52.132;5.442;2022-10-16T08:19:48;3.20;;;1.90;;
71965;SDS011;59836;52.132;5.442;2022-10-16T08:22:20;5.50;;;1.60;;
71965;SDS011;59836;52.132;5.442;2022-10-16T08:27:49;3.35;;;1.60;;
71965;SDS011;59836;52.132;5.442;2022-10-16T08:30:20;3.53;;;1.40;;
71965;SDS011;59836;52.132;5.442;2022-10-16T08:32:47;5.83;;;1.60;;
71965;SDS011;59836;52.132;5.442;2022-10-16T08:35:31;3.42;;;1.30;;
71965;SDS011;59836;52.132;5.442;2022-10-16T08:48:20;2.50;;;1.73;;
71965;SDS011;59836;52.132;5.442;2022-10-16T08:54:06;5.35;;;1.38;;
71965;SDS011;59836;52.132;5.442;2022-10-16T08:59:54;2.85;;;1.20;;
71965;SDS011;59836;52.132;5.442;2022-10-16T09:02:29;4.23;;;1.47;;
71965;SDS011;59836;52.132;5.442;2022-10-16T09:05:18;3.95;;;1.60;;
71965;SDS011;59836;52.132;5.442;2022-10-16T09:11:20;4.93;;;1.75;;
71965;SDS011;59836;52.132;5.442;2022-10-16T09:16:51;3.87;;;1.10;;
71965;SDS011;59836;52.132;5.442;2022-10-16T09:25:18;3.92;;;1.30;;
71965;SDS011;59836;52.132;5.442;2022-10-16T09:27:54;3.55;;;1.60;;
71965;SDS011;59836;52.132;5.442;2022-10-16T09:30:38;4.57;;;1.20;;
71965;SDS011;59836;52.132;5.442;2022-10-16T09:33:05;4.03;;;1.02;;
71965;SDS011;59836;52.132;5.442;2022-10-16T09:35:37;5.28;;;1.20;;
71965;SDS011;59836;52.132;5.442;2022-10-16T09:38:06;3.38;;;1.20;;
71965;SDS011;59836;52.132;5.442;2022-10-16T09:44:25;3.60;;;1.00;;
71965;SDS011;59836;52.132;5.442;2022-10-16T09:49:59;4.22;;;1.13;;
71965;SDS011;59836;52.132;5.442;2022-10-16T09:52:46;5.53;;;1.42;;
71965;SDS011;59836;52.132;5.442;2022-10-16T09:55:27;7.25;;;1.10;;
71965;SDS011;59836;52.132;5.442;2022-10-16T09:57:54;6.43;;;1.50;;
71965;SDS011;59836;52.132;5.442;2022-10-16T10:00:22;4.90;;;1.17;;
71965;SDS011;59836;52.132;5.442;2022-10-16T10:02:49;3.58;;;1.15;;
71965;SDS011;59836;52.132;5.442;2022-10-16T10:05:21;6.55;;;1.08;;
71965;SDS011;59836;52.132;5.442;2022-10-16T10:07:56;8.05;;;1.88;;
71965;SDS011;59836;52.132;5.442;2022-10-16T10:10:42;6.23;;;1.20;;
71965;SDS011;59836;52.132;5.442;2022-10-16T10:13:22;4.15;;;1.38;;
71965;SDS011;59836;52.132;5.442;2022-10-16T10:15:51;4.78;;;0.90;;
71965;SDS011;59836;52.132;5.442;2022-10-16T10:21:29;6.85;;;1.30;;
71965;SDS011;59836;52.132;5.442;2022-10-16T10:24:02;9.40;;;1.27;;
71965;SDS011;59836;52.132;5.442;2022-10-16T10:26:28;4.22;;;1.58;;
71965;SDS011;59836;52.132;5.442;2022-10-16T10:29:21;5.10;;;1.35;;
71965;SDS011;59836;52.132;5.442;2022-10-16T10:38:06;4.83;;;1.50;;
71965;SDS011;59836;52.132;5.442;2022-10-16T10:46:28;9.57;;;1.73;;
71965;SDS011;59836;52.132;5.442;2022-10-16T11:01:22;6.57;;;1.00;;
71965;SDS011;59836;52.132;5.442;2022-10-16T11:06:55;8.40;;;1.43;;
71965;SDS011;59836;52.132;5.442;2022-10-16T11:20:33;3.37;;;1.13;;
71965;SDS011;59836;52.132;5.442;2022-10-16T11:23:16;7.00;;;1.40;;
71965;SDS011;59836;52.132;5.442;2022-10-16T11:25:54;4.05;;;0.90;;
71965;SDS011;59836;52.132;5.442;2022-10-16T11:34:53;5.77;;;0.90;;
71965;SDS011;59836;52.132;5.442;2022-10-16T11:37:38;4.40;;;1.00;;
71965;SDS011;59836;52.132;5.442;2022-10-16T11:43:25;7.53;;;1.50;;
71965;SDS011;59836;52.132;5.442;2022-10-16T11:45:57;3.25;;;1.27;;
71965;SDS011;59836;52.132;5.442;2022-10-16T11:48:41;6.53;;;1.53;;
71965;SDS011;59836;52.132;5.442;2022-10-16T11:51:21;5.25;;;1.25;;
71965;SDS011;59836;52.132;5.442;2022-10-16T11:57:11;5.00;;;1.23;;
71965;SDS011;59836;52.132;5.442;2022-10-16T11:59:47;5.53;;;1.30;;
71965;SDS011;59836;52.132;5.442;2022-10-16T12:02:28;9.20;;;1.13;;
71965;SDS011;59836;52.132;5.442;2022-10-16T12:05:28;7.00;;;1.00;;
71965;SDS011;59836;52.132;5.442;2022-10-16T12:08:18;4.68;;;1.38;;
71965;SDS011;59836;52.132;5.442;2022-10-16T12:11:05;10.95;;;2.08;;
71965;SDS011;59836;52.132;5.442;2022-10-16T12:13:49;4.90;;;1.27;;
71965;SDS011;59836;52.132;5.442;2022-10-16T12:16:22;6.83;;;1.37;;
71965;SDS011;59836;52.132;5.442;2022-10-16T12:19:02;3.33;;;1.20;;
71965;SDS011;59836;52.132;5.442;2022-10-16T12:30:40;4.80;;;1.20;;
71965;SDS011;59836;52.132;5.442;2022-10-16T12:36:16;6.63;;;1.13;;
71965;SDS011;59836;52.132;5.442;2022-10-16T12:38:57;6.70;;;1.13;;
71965;SDS011;59836;52.132;5.442;2022-10-16T12:41:27;5.05;;;1.25;;
71965;SDS011;59836;52.132;5.442;2022-10-16T12:43:55;4.27;;;1.17;;
71965;SDS011;59836;52.132;5.442;2022-10-16T12:46:26;4.40;;;0.93;;
71965;SDS011;59836;52.132;5.442;2022-10-16T12:51:51;9.00;;;1.02;;
71965;SDS011;59836;52.132;5.442;2022-10-16T12:54:19;4.75;;;1.05;;
71965;SDS011;59836;52.132;5.442;2022-10-16T13:23:43;5.05;;;1.45;;
71965;SDS011;59836;52.132;5.442;2022-10-16T13:29:21;5.88;;;0.80;;
71965;SDS011;59836;52.132;5.442;2022-10-16T13:31:48;6.97;;;0.90;;
71965;SDS011;59836;52.132;5.442;2022-10-16T13:34:18;3.55;;;0.82;;
71965;SDS011;59836;52.132;5.442;2022-10-16T13:36:53;9.38;;;1.35;;
71965;SDS011;59836;52.132;5.442;2022-10-16T13:39:21;8.33;;;0.93;;
71965;SDS011;59836;52.132;5.442;2022-10-16T13:42:03;8.85;;;1.10;;
71965;SDS011;59836;52.132;5.442;2022-10-16T13:44:36;4.05;;;1.20;;
71965;SDS011;59836;52.132;5.442;2022-10-16T13:47:29;5.07;;;1.25;;
71965;SDS011;59836;52.132;5.442;2022-10-16T13:52:27;3.07;;;0.90;;
71965;SDS011;59836;52.132;5.442;2022-10-16T13:54:55;6.60;;;0.73;;
71965;SDS011;59836;52.132;5.442;2022-10-16T13:57:27;5.72;;;1.80;;
71965;SDS011;59836;52.132;5.442;2022-10-16T14:11:29;5.93;;;1.05;;
71965;SDS011;59836;52.132;5.442;2022-10-16T14:13:57;3.85;;;0.90;;
71965;SDS011;59836;52.132;5.442;2022-10-16T14:19:21;4.73;;;0.57;;
71965;SDS011;59836;52.132;5.442;2022-10-16T14:21:54;5.18;;;1.80;;
71965;SDS011;59836;52.132;5.442;2022-10-16T14:31:38;4.63;;;1.30;;
71965;SDS011;59836;52.132;5.442;2022-10-16T14:34:28;8.33;;;1.40;;
71965;SDS011;59836;52.132;5.442;2022-10-16T14:37:13;3.88;;;0.73;;
71965;SDS011;59836;52.132;5.442;2022-10-16T14:39:53;5.32;;;0.95;;
71965;SDS011;59836;52.132;5.442;2022-10-16T14:42:24;3.55;;;0.80;;
71965;SDS011;59836;52.132;5.442;2022-10-16T14:44:55;8.23;;;1.33;;
71965;SDS011;59836;52.132;5.442;2022-10-16T14:49:53;7.72;;;1.25;;
71965;SDS011;59836;52.132;5.442;2022-10-16T14:52:27;5.80;;;1.38;;
71965;SDS011;59836;52.132;5.442;2022-10-16T14:54:58;7.95;;;1.30;;
71965;SDS011;59836;52.132;5.442;2022-10-16T14:57:26;4.65;;;0.95;;
71965;SDS011;59836;52.132;5.442;2022-10-16T15:00:14;6.57;;;1.43;;
71965;SDS011;59836;52.132;5.442;2022-10-16T15:02:55;4.97;;;1.10;;
71965;SDS011;59836;52.132;5.442;2022-10-16T15:05:25;6.50;;;1.15;;
71965;SDS011;59836;52.132;5.442;2022-10-16T15:07:56;5.50;;;1.25;;
71965;SDS011;59836;52.132;5.442;2022-10-16T15:10:23;8.13;;;1.25;;
71965;SDS011;59836;52.132;5.442;2022-10-16T15:12:52;8.20;;;1.17;;
71965;SDS011;59836;52.132;5.442;2022-10-16T15:18:46;4.40;;;0.80;;
71965;SDS011;59836;52.132;5.442;2022-10-16T15:21:24;5.88;;;1.10;;
71965;SDS011;59836;52.132;5.442;2022-10-16T15:23:53;3.30;;;1.00;;
71965;SDS011;59836;52.132;5.442;2022-10-16T15:26:26;7.83;;;1.47;;
71965;SDS011;59836;52.132;5.442;2022-10-16T15:28:54;7.47;;;1.50;;
71965;SDS011;59836;52.132;5.442;2022-10-16T15:31:21;5.93;;;1.10;;
71965;SDS011;59836;52.132;5.442;2022-10-16T15:34:05;9.80;;;0.93;;
71965;SDS011;59836;52.132;5.442;2022-10-16T15:36:34;6.22;;;1.40;;
71965;SDS011;59836;52.132;5.442;2022-10-16T15:39:10;4.87;;;1.70;;
71965;SDS011;59836;52.132;5.442;2022-10-16T15:41:44;5.55;;;0.80;;
71965;SDS011;59836;52.132;5.442;2022-10-16T15:44:31;5.53;;;1.50;;
71965;SDS011;59836;52.132;5.442;2022-10-16T15:47:00;6.30;;;1.92;;
71965;SDS011;59836;52.132;5.442;2022-10-16T15:49:27;3.15;;;1.60;;
71965;SDS011;59836;52.132;5.442;2022-10-16T15:51:55;6.40;;;1.60;;
71965;SDS011;59836;52.132;5.442;2022-10-16T15:54:26;7.55;;;1.13;;
71965;SDS011;59836;52.132;5.442;2022-10-16T15:56:53;5.35;;;1.20;;
71965;SDS011;59836;52.132;5.442;2022-10-16T15:59:25;5.53;;;0.93;;
71965;SDS011;59836;52.132;5.442;2022-10-16T16:01:53;5.78;;;1.23;;
71965;SDS011;59836;52.132;5.442;2022-10-16T16:04:23;8.57;;;1.43;;
71965;SDS011;59836;52.132;5.442;2022-10-16T16:07:18;6.85;;;1.55;;
71965;SDS011;59836;52.132;5.442;2022-10-16T16:09:46;8.43;;;1.70;;
71965;SDS011;59836;52.132;5.442;2022-10-16T16:12:30;4.43;;;1.27;;
71965;SDS011;59836;52.132;5.442;2022-10-16T16:15:08;6.30;;;1.90;;
71965;SDS011;59836;52.132;5.442;2022-10-16T16:17:47;8.17;;;2.07;;
71965;SDS011;59836;52.132;5.442;2022-10-16T16:20:16;6.35;;;2.03;;
71965;SDS011;59836;52.132;5.442;2022-10-16T16:22:51;11.73;;;3.20;;
71965;SDS011;59836;52.132;5.442;2022-10-16T16:25:18;8.68;;;2.38;;
71965;SDS011;59836;52.132;5.442;2022-10-16T16:27:45;6.53;;;3.03;;
71965;SDS011;59836;52.132;5.442;2022-10-16T16:32:52;8.07;;;2.38;;
71965;SDS011;59836;52.132;5.442;2022-10-16T16:35:27;5.47;;;2.45;;
71965;SDS011;59836;52.132;5.442;2022-10-16T16:37:53;6.88;;;2.97;;
71965;SDS011;59836;52.132;5.442;2022-10-16T16:40:20;7.40;;;2.60;;
71965;SDS011;59836;52.132;5.442;2022-10-16T16:42:49;5.97;;;3.20;;
71965;SDS011;59836;52.132;5.442;2022-10-16T16:45:16;8.60;;;3.30;;
71965;SDS011;59836;52.132;5.442;2022-10-16T16:47:45;9.43;;;3.20;;
71965;SDS011;59836;52.132;5.442;2022-10-16T16:50:11;10.55;;;4.10;;
71965;SDS011;59836;52.132;5.442;2022-10-16T16:52:38;9.40;;;4.40;;
71965;SDS011;59836;52.132;5.442;2022-10-16T16:55:04;11.70;;;6.20;;
71965;SDS011;59836;52.132;5.442;2022-10-16T16:57:34;11.20;;;5.88;;
71965;SDS011;59836;52.132;5.442;2022-10-16T17:00:01;11.07;;;5.38;;
71965;SDS011;59836;52.132;5.442;2022-10-16T17:02:27;10.43;;;5.65;;
71965;SDS011;59836;52.132;5.442;2022-10-16T17:05:00;10.73;;;5.55;;
71965;SDS011;59836;52.132;5.442;2022-10-16T17:07:30;13.83;;;6.67;;
71965;SDS011;59836;52.132;5.442;2022-10-16T17:09:58;7.25;;;4.65;;
71965;SDS011;59836;52.132;5.442;2022-10-16T17:12:25;8.32;;;4.70;;
71965;SDS011;59836;52.132;5.442;2022-10-16T17:15:03;11.52;;;4.32;;
71965;SDS011;59836;52.132;5.442;2022-10-16T17:20:31;10.43;;;5.00;;
71965;SDS011;59836;52.132;5.442;2022-10-16T17:22:57;10.40;;;5.20;;
71965;SDS011;59836;52.132;5.442;2022-10-16T17:25:24;17.45;;;5.45;;
71965;SDS011;59836;52.132;5.442;2022-10-16T17:27:52;10.38;;;4.70;;
71965;SDS011;59836;52.132;5.442;2022-10-16T17:33:24;9.93;;;3.70;;
71965;SDS011;59836;52.132;5.442;2022-10-16T17:36:04;10.73;;;4.47;;
71965;SDS011;59836;52.132;5.442;2022-10-16T17:38:32;11.85;;;6.55;;
71965;SDS011;59836;52.132;5.442;2022-10-16T17:44:04;13.57;;;6.72;;
71965;SDS011;59836;52.132;5.442;2022-10-16T17:46:32;14.10;;;7.47;;
71965;SDS011;59836;52.132;5.442;2022-10-16T17:49:05;13.13;;;6.82;;
71965;SDS011;59836;52.132;5.442;2022-10-16T17:51:31;17.13;;;7.45;;
71965;SDS011;59836;52.132;5.442;2022-10-16T17:54:03;17.00;;;8.13;;
71965;SDS011;59836;52.132;5.442;2022-10-16T17:56:33;20.35;;;11.55;;
71965;SDS011;59836;52.132;5.442;2022-10-16T17:59:00;22.50;;;9.17;;
71965;SDS011;59836;52.132;5.442;2022-10-16T18:01:31;20.52;;;7.15;;
71965;SDS011;59836;52.132;5.442;2022-10-16T18:04:04;18.17;;;8.32;;
71965;SDS011;59836;52.132;5.442;2022-10-16T18:06:35;20.75;;;8.15;;
71965;SDS011;59836;52.132;5.442;2022-10-16T18:09:02;25.55;;;10.70;;
71965;SDS011;59836;52.132;5.442;2022-10-16T18:11:30;30.57;;;11.23;;
71965;SDS011;59836;52.132;5.442;2022-10-16T18:13:58;32.60;;;13.02;;
71965;SDS011;59836;52.132;5.442;2022-10-16T18:16:25;25.98;;;9.80;;
71965;SDS011;59836;52.132;5.442;2022-10-16T18:19:08;25.58;;;9.43;;
71965;SDS011;59836;52.132;5.442;2022-10-16T18:21:35;16.02;;;5.97;;
71965;SDS011;59836;52.132;5.442;2022-10-16T18:24:02;14.80;;;6.10;;
71965;SDS011;59836;52.132;5.442;2022-10-16T18:26:28;22.92;;;8.90;;
71965;SDS011;59836;52.132;5.442;2022-10-16T18:29:05;19.92;;;7.25;;
71965;SDS011;59836;52.132;5.442;2022-10-16T18:31:39;19.00;;;8.18;;
71965;SDS011;59836;52.132;5.442;2022-10-16T18:34:15;18.23;;;6.28;;
71965;SDS011;59836;52.132;5.442;2022-10-16T18:36:42;16.73;;;5.83;;
71965;SDS011;59836;52.132;5.442;2022-10-16T18:39:09;14.35;;;6.93;;
71965;SDS011;59836;52.132;5.442;2022-10-16T18:41:38;15.77;;;6.55;;
71965;SDS011;59836;52.132;5.442;2022-10-16T18:44:07;12.98;;;6.35;;
71965;SDS011;59836;52.132;5.442;2022-10-16T18:46:36;13.05;;;5.30;;
71965;SDS011;59836;52.132;5.442;2022-10-16T18:49:02;10.20;;;4.90;;
71965;SDS011;59836;52.132;5.442;2022-10-16T18:51:37;12.95;;;5.93;;
71965;SDS011;59836;52.132;5.442;2022-10-16T18:54:10;10.90;;;5.43;;
71965;SDS011;59836;52.132;5.442;2022-10-16T18:56:43;15.48;;;5.22;;
71965;SDS011;59836;52.132;5.442;2022-10-16T18:59:10;7.63;;;4.70;;
71965;SDS011;59836;52.132;5.442;2022-10-16T19:01:48;12.73;;;5.73;;
71965;SDS011;59836;52.132;5.442;2022-10-16T19:04:15;11.38;;;5.00;;
71965;SDS011;59836;52.132;5.442;2022-10-16T19:06:43;13.85;;;4.90;;
71965;SDS011;59836;52.132;5.442;2022-10-16T19:09:17;12.82;;;4.93;;
71965;SDS011;59836;52.132;5.442;2022-10-16T19:11:51;10.52;;;4.68;;
71965;SDS011;59836;52.132;5.442;2022-10-16T19:14:17;16.00;;;5.60;;
71965;SDS011;59836;52.132;5.442;2022-10-16T19:16:53;9.27;;;4.57;;
71965;SDS011;59836;52.132;5.442;2022-10-16T19:19:20;9.30;;;4.20;;
71965;SDS011;59836;52.132;5.442;2022-10-16T19:21:48;12.00;;;4.32;;
71965;SDS011;59836;52.132;5.442;2022-10-16T19:24:21;10.20;;;5.25;;
71965;SDS011;59836;52.132;5.442;2022-10-16T19:26:47;13.80;;;5.70;;
71965;SDS011;59836;52.132;5.442;2022-10-16T19:29:16;11.20;;;5.30;;
71965;SDS011;59836;52.132;5.442;2022-10-16T19:31:44;11.38;;;5.38;;
71965;SDS011;59836;52.132;5.442;2022-10-16T19:34:11;10.15;;;5.07;;
71965;SDS011;59836;52.132;5.442;2022-10-16T19:36:38;9.40;;;5.00;;